Terminal Aerodrome Forecast
Issued by NWS

Home | Current Version | Previous Version | Graphics & Text | Print | Product List | Glossary On
Versions: 1 2 3 4 5 6 7 8 9 10 11 12 13 14 15 16
000
FTUS43 KBIS 231734
TAFDIK
TAF
KDIK 231734Z 2318/2418 04017KT P6SM OVC060
     FM232200 02014G23KT P6SM VCSH BKN040 OVC045
     FM240000 01015G23KT 6SM RA BKN030
     FM240300 01012KT 6SM RA BKN015 OVC020
     FM240600 35009KT 6SM BR VCSH BKN020 OVC035
     FM241000 34008KT P6SM SCT035 BKN070=

USA.gov is the U.S. government's official web portal to all federal, state and local government web resources and services.